ソルト・レーク・シティ国際空港の過去48時間の天気

ソルト・レーク・シティ国際空港 (Salt Lake City, Salt Lake City International Airport)

現在時刻: 11/27 01:16 MST (11/27 08:16 UTC) 以下の時間は現地時間です。

過去48時間のMETAR気象情報
時間 風向 風速(m/s) 視程 気温(℃) 湿度(%) 気圧(hPa) 天気現象
27 00:54 静穏 0 10km以上 1.1 88 1022.7
27 00:27 北北東 2 10km以上 1.1 88 1022 もや
26 23:54 静穏 0 10km以上 0.6 92 1023 もや
26 23:41 西北西 2 10km以上 0.6 92 1022 もや
26 22:54 静穏 0 8050m 0 96 1022.5 もや
26 22:14 北北西 2 10km以上 1.7 88 1022
26 21:54 北北西 3 10km以上 1.7 88 1023.3
26 20:54 2 10km以上 1.1 92 1023.4
26 20:39 2 10km以上 1.1 92 1022
26 19:54 2 10km以上 1.7 88 1023.4 もや
26 19:33 北北西 2 10km以上 1.7 88 1022
26 19:04 2 10km以上 1.7 88 1022
26 18:54 2 10km以上 1.7 92 1023.1
26 18:40 3 10km以上 1.1 92 1022
26 17:54 北北西 4 10km以上 1.7 88 1023
26 17:16 西北西 3 4850m 1.1 92 1022 弱い雪 もや
26 16:54 西北西 3 4850m 1.1 88 1022.9 弱い雪 もや
26 16:11 西 3 4850m 1.7 85 1022 弱い雪 もや
26 15:54 西 3 4000m 1.7 85 1022.6 弱い雪
26 15:40 西北西 3 4000m 2.2 82 1021 弱い雪
26 15:34 西北西 4 8050m 2.2 79 1021 弱い雪
26 14:54 北西 4 10km以上 3.3 67 1022.3
26 13:54 北西 3 10km以上 3.9 62 1021.9
26 12:54 北西 3 10km以上 3.9 62 1022.1
26 11:54 北北西 4 10km以上 2.8 64 1022.9
26 10:54 静穏 0 10km以上 3.3 59 1021.6
26 09:54 静穏 0 10km以上 1.7 64 1022.7
26 08:54 2 10km以上 -0.6 75 1022.2
26 07:54 東南東 2 10km以上 -1.7 78 1022.5
26 06:54 静穏 0 10km以上 -2.8 81 1022.9
26 05:54 静穏 0 10km以上 -2.8 81 1022.6
26 04:54 不定 2 10km以上 -1.1 75 1020.9
26 03:54 南東 2 10km以上 -2.2 78 1022
26 02:54 3 10km以上 -1.7 78 1022.6
26 01:54 南南東 2 10km以上 -1.1 75 1022.9
26 00:54 南東 3 10km以上 -1.1 78 1023.8
25 23:54 南西 2 10km以上 -0.6 75 1024.9
25 22:54 東北東 3 10km以上 0.6 72 1025.3
25 21:54 南南東 4 10km以上 0.6 75 1025.8
25 20:54 南東 2 10km以上 0.6 78 1026.4
25 19:54 静穏 0 10km以上 0.6 78 1027.4
25 18:54 4 10km以上 0.6 72 1027
25 17:54 西 2 10km以上 2.8 61 1026.7
25 16:54 北北西 2 10km以上 5 53 1027.2
25 15:54 3 10km以上 7.8 45 1027.1
25 14:54 2 10km以上 7.8 45 1027.8
25 13:54 2 10km以上 7.8 42 1028.6
25 12:54 2 10km以上 7.2 42 1030
25 11:54 静穏 0 10km以上 6.1 47 1030.5
25 10:54 静穏 0 10km以上 5 48 1031.8
25 09:54 南南東 2 10km以上 1.7 64 1033.9
25 08:54 南東 3 10km以上 0 69 1034.9
25 07:54 東南東 3 10km以上 -2.8 78 1035.6
25 06:54 南東 3 10km以上 -2.8 81 1035.6
25 05:54 南東 3 10km以上 -2.8 81 1035.9
25 04:54 南東 2 10km以上 -2.8 81 1035.7
25 03:54 南東 3 10km以上 -2.2 75 1034.4
25 02:54 南南東 3 10km以上 -2.2 75 1035.8
25 01:54 南東 3 10km以上 -1.7 75 1034.9
KSLC 270754Z 00000KT 8SM FEW008 BKN017 BKN025 01/M01 A3019 RMK AO2 SLP227 T00111006
KSLC 270727Z 03004KT 6SM BR FEW008 BKN020 BKN026 01/M01 A3019 RMK AO2 T00111006
KSLC 270654Z 00000KT 6SM BR OVC021 01/M01 A3019 RMK AO2 SLP230 T00061006 400441028
KSLC 270641Z 30004KT 6SM BR SCT018 BKN024 BKN060 01/M01 A3019 RMK AO2 T00061006
KSLC 270554Z 00000KT 5SM BR FEW025 SCT060 00/M01 A3017 RMK AO2 SLP225 60000 T00001006 10017 20000 58003
KSLC 270514Z 33003KT 7SM SCT025 OVC060 02/00 A3019 RMK AO2 T00170000
KSLC 270454Z 33005KT 7SM BKN024 OVC060 02/00 A3020 RMK AO2 SLP233 T00170000
KSLC 270354Z 35004KT 7SM BKN025 OVC035 01/00 A3019 RMK AO2 SLP234 T00110000
KSLC 270339Z 36004KT 7SM FEW019 BKN028 OVC043 01/00 A3019 RMK AO2 T00110000
KSLC 270254Z 01004KT 6SM BR FEW005 BKN031 OVC042 02/00 A3018 RMK AO2 SLP234 60000 T00170000 51005
KSLC 270233Z 34004KT 8SM SCT023 OVC035 02/00 A3018 RMK AO2 T00170000
KSLC 270204Z 35004KT 7SM BKN024 BKN029 OVC034 02/00 A3018 RMK AO2 T00170000
KSLC 270154Z 35004KT 7SM SCT025 BKN034 OVC050 02/01 A3017 RMK AO2 SLP231 T00170006
KSLC 270140Z 35006KT 7SM FEW006 SCT026 OVC035 01/00 A3017 RMK AO2 T00110000
KSLC 270054Z 33007KT 8SM FEW006 BKN023 OVC032 02/00 A3017 RMK AO2 SNE44 SLP230 P0000 T00170000
KSLC 270016Z 29005KT 3SM -SN BR FEW009 FEW014 OVC023 01/00 A3017 RMK AO2 SFC VIS 4 P0000 T00110000
KSLC 262354Z 30006KT 3SM -SN BR BKN026 OVC045 01/M01 A3017 RMK AO2 SFC VIS 4 SLP229 P0000 60000 T00111006 10044 20011 53002
KSLC 262311Z 27006KT 3SM -SN BR BKN037 OVC050 02/M01 A3017 RMK AO2 P0000 T00171006
KSLC 262254Z 27005KT 2 1/2SM -SN BKN038 OVC045 02/M01 A3016 RMK AO2 SFC VIS 3 SNB13 SLP226 P0000 T00171006
KSLC 262240Z 29006KT 2 1/2SM -SN BKN029 OVC050 02/M01 A3016 RMK AO2 SFC VIS 3 SNB13 P0000 T00221006
KSLC 262234Z 29007KT 5SM -SN BKN029 BKN038 OVC065 02/M01 A3016 RMK AO2 SNB13 P0000 T00221011
KSLC 262154Z 31008KT 9SM BKN046 OVC060 03/M02 A3016 RMK AO2 SLP223 VIRGA VCSH T00331022
KSLC 262054Z 32006KT 9SM BKN060 OVC095 04/M03 A3016 RMK AO2 SLP219 VIRGA T00391028 58006
KSLC 261954Z 32006KT 10SM BKN080 BKN100 04/M03 A3016 RMK AO2 SLP221 T00391028
KSLC 261854Z 33008KT 10SM SCT070 BKN100 OVC120 03/M03 A3018 RMK AO2 SLP229 VIRGA T00281033
KSLC 261754Z 00000KT 10SM BKN100 OVC150 03/M04 A3018 RMK AO2 SLP216 VIRGA T00331039 10033 21028 53007
KSLC 261654Z 00000KT 10SM SCT120 BKN150 BKN200 02/M04 A3017 RMK AO2 SLP227 VIRGA ACSL DSNT SE T00171044
KSLC 261554Z 18004KT 10SM FEW120 SCT150 BKN200 M01/M04 A3015 RMK AO2 SLP222 ACSL DSNT E-SW T10061044
KSLC 261454Z 12003KT 10SM FEW120 BKN150 BKN190 M02/M05 A3015 RMK AO2 SLP225 ACSL SW AND DSNT SE T10171050 58001
KSLC 261354Z 00000KT 10SM FEW150 BKN190 M03/M06 A3016 RMK AO2 SLP229 ACSL E T10281056
KSLC 261254Z 00000KT 10SM BKN190 M03/M06 A3016 RMK AO2 SLP226 T10281056
KSLC 261154Z VRB03KT 10SM FEW200 M01/M05 A3016 RMK AO2 SLP209 T10111050 10006 21022 58013
KSLC 261054Z 14004KT 10SM FEW220 M02/M06 A3017 RMK AO2 SLP220 T10221056
KSLC 260954Z 10005KT 10SM FEW230 M02/M05 A3019 RMK AO2 SLP226 T10171050
KSLC 260854Z 15004KT 10SM FEW230 M01/M05 A3020 RMK AO2 SLP229 T10111050 58019
KSLC 260754Z 13006KT 10SM CLR M01/M04 A3023 RMK AO2 SLP238 T10111044
KSLC 260654Z 23004KT 10SM CLR M01/M04 A3025 RMK AO2 SLP249 T10061044 400831033
KSLC 260554Z 06005KT 10SM FEW230 01/M04 A3026 RMK AO2 SLP253 T00061039 10050 20000 55007
KSLC 260454Z 15007KT 10SM FEW150 FEW220 01/M03 A3026 RMK AO2 SLP258 T00061033
KSLC 260354Z 14004KT 10SM FEW150 SCT220 01/M03 A3027 RMK AO2 SLP264 T00061028
KSLC 260254Z 00000KT 10SM FEW140 BKN210 01/M03 A3029 RMK AO2 SLP274 T00061028 55004
KSLC 260154Z 36007KT 10SM FEW130 BKN200 01/M04 A3028 RMK AO2 SLP270 T00061039
KSLC 260054Z 26003KT 10SM FEW140 SCT200 03/M04 A3028 RMK AO2 SLP267 T00281039
KSLC 252354Z 34004KT 10SM FEW160 SCT220 05/M04 A3030 RMK AO2 SLP272 T00501039 10083 20044 56018
KSLC 252254Z 35005KT 10SM FEW040 FEW210 08/M03 A3031 RMK AO2 SLP271 FU FEW040 FU DSNT N T00781033
KSLC 252154Z 35004KT 10SM FEW200 08/M03 A3034 RMK AO2 SLP278 T00781033
KSLC 252054Z 01004KT 10SM FEW200 08/M04 A3036 RMK AO2 SLP286 T00781044 56033
KSLC 251954Z 36003KT 10SM CLR 07/M05 A3040 RMK AO2 SLP300 T00721050
KSLC 251854Z 00000KT 10SM CLR 06/M04 A3043 RMK AO2 SLP305 T00611044
KSLC 251754Z 00000KT 10SM FEW200 05/M05 A3047 RMK AO2 SLP318 T00501050 10050 21033 58016
KSLC 251654Z 16004KT 10SM FEW200 02/M04 A3049 RMK AO2 SLP339 T00171044
KSLC 251554Z 13006KT 10SM FEW200 00/M05 A3051 RMK AO2 SLP349 T00001050
KSLC 251454Z 12006KT 10SM FEW200 M03/M06 A3052 RMK AO2 SLP356 T10281061 56005
KSLC 251354Z 14006KT 10SM CLR M03/M06 A3052 RMK AO2 SLP356 T10281056
KSLC 251254Z 13006KT 10SM CLR M03/M06 A3054 RMK AO2 SLP359 T10281056
KSLC 251154Z 13003KT 10SM CLR M03/M06 A3054 RMK AO2 SLP357 T10281056 11011 21028 56005
KSLC 251054Z 13006KT 10SM CLR M02/M06 A3055 RMK AO2 SLP344 T10221061
KSLC 250954Z 15006KT 10SM CLR M02/M06 A3055 RMK AO2 SLP358 T10221061
KSLC 250854Z 14005KT 10SM CLR M02/M06 A3056 RMK AO2 SLP349 T10171056 58003